Time;durP1;ratioP1;P1;durP2;ratioP2;P2;SDS_P1;SDS_P2;PMS_P1;PMS_P2;Temp;Humidity;BMP_temperature;BMP_pressure;BME280_temperature;BME280_humidity;BME280_pressure;Samples;Min_cycle;Max_cycle;Signal;HPM_P1;HPM_P2
2022/09/02 00:01:26;;;;;;;10.85;3.13;;;18.80;73.70;;;;;;5038441;28;20032;-72
2022/09/02 00:03:57;;;;;;;12.98;4.57;;;18.80;73.10;;;;;;5029957;28;20029;-73
2022/09/02 00:06:25;;;;;;;12.20;3.08;;;18.80;73.10;;;;;;5033160;28;20013;-72
2022/09/02 00:08:51;;;;;;;10.65;3.67;;;18.70;73.00;;;;;;5041186;28;20033;-72
2022/09/02 00:11:22;;;;;;;15.73;4.22;;;18.80;72.90;;;;;;5034069;28;20028;-73
2022/09/02 00:13:49;;;;;;;17.10;3.80;;;18.80;72.90;;;;;;5033065;28;20437;-73
2022/09/02 00:16:16;;;;;;;16.13;4.07;;;18.70;72.80;;;;;;5031379;28;20080;-72
2022/09/02 00:18:43;;;;;;;12.75;3.55;;;18.70;72.80;;;;;;5043109;28;20040;-73
2022/09/02 00:21:12;;;;;;;16.83;3.90;;;18.70;72.80;;;;;;5035133;28;20476;-73
2022/09/02 00:23:39;;;;;;;18.33;4.93;;;18.70;72.80;;;;;;5035575;28;20029;-73
2022/09/02 00:26:06;;;;;;;16.92;3.42;;;18.70;72.80;;;;;;5038015;28;20043;-73
2022/09/02 00:28:33;;;;;;;13.82;4.78;;;18.70;72.80;;;;;;5037869;28;20405;-72
2022/09/02 00:30:59;;;;;;;14.15;3.28;;;18.70;72.80;;;;;;5037761;28;20049;-73
2022/09/02 00:33:26;;;;;;;8.32;2.67;;;18.70;73.20;;;;;;5035940;28;20055;-73
2022/09/02 00:35:52;;;;;;;14.85;3.70;;;18.70;73.40;;;;;;5033459;28;20049;-73
2022/09/02 00:38:19;;;;;;;10.10;3.20;;;18.70;73.30;;;;;;5037307;28;20052;-72
2022/09/02 00:40:48;;;;;;;15.57;3.55;;;18.70;73.20;;;;;;5036369;28;20066;-74
2022/09/02 00:43:37;;;;;;;13.70;6.15;;;18.70;73.10;;;;;;5031871;28;20060;-73
2022/09/02 00:46:04;;;;;;;12.43;3.58;;;18.70;73.10;;;;;;5030107;28;20053;-73
2022/09/02 00:48:31;;;;;;;16.42;3.70;;;18.70;73.10;;;;;;5036900;28;20017;-73
2022/09/02 00:50:58;;;;;;;14.95;3.92;;;18.70;73.20;;;;;;5036420;28;20040;-73
2022/09/02 00:53:25;;;;;;;10.43;2.78;;;18.70;73.40;;;;;;5036773;28;20372;-73
2022/09/02 00:55:51;;;;;;;15.95;5.32;;;18.60;73.40;;;;;;5028557;28;20030;-73
2022/09/02 00:58:26;;;;;;;14.68;3.55;;;18.70;73.50;;;;;;5037395;28;20473;-73
2022/09/02 01:00:56;;;;;;;16.98;3.78;;;18.60;73.30;;;;;;5036730;28;20124;-74
2022/09/02 01:03:25;;;;;;;16.02;3.40;;;18.60;73.10;;;;;;5036667;28;20022;-72
2022/09/02 01:05:54;;;;;;;14.93;3.45;;;18.60;73.10;;;;;;5032307;28;20037;-72
2022/09/02 01:08:25;;;;;;;12.38;4.22;;;18.60;73.10;;;;;;5033642;28;20017;-71
2022/09/02 01:10:54;;;;;;;15.88;5.03;;;18.60;73.00;;;;;;5033311;28;20033;-72
2022/09/02 01:13:24;;;;;;;18.40;4.72;;;18.60;73.00;;;;;;5037960;28;20476;-74
2022/09/02 01:15:58;;;;;;;10.13;3.05;;;18.50;73.30;;;;;;5034182;28;20087;-73
2022/09/02 01:18:28;;;;;;;12.25;3.15;;;18.60;74.00;;;;;;5040923;28;20033;-73
2022/09/02 01:20:56;;;;;;;18.73;3.90;;;18.60;73.70;;;;;;5029009;28;20408;-72
2022/09/02 01:23:23;;;;;;;11.48;3.65;;;18.60;74.10;;;;;;5033483;28;20025;-73
2022/09/02 01:25:49;;;;;;;12.80;4.72;;;18.60;74.40;;;;;;5027824;28;20021;-73
2022/09/02 01:28:17;;;;;;;13.10;3.47;;;18.50;74.50;;;;;;5037148;28;20045;-72
2022/09/02 01:30:48;;;;;;;16.42;4.15;;;18.60;74.90;;;;;;5036662;28;20120;-73
2022/09/02 01:33:16;;;;;;;11.57;3.28;;;18.60;75.00;;;;;;5032780;28;20021;-72
2022/09/02 01:35:44;;;;;;;23.48;5.53;;;18.60;75.10;;;;;;5034455;28;20562;-72
2022/09/02 01:38:10;;;;;;;19.55;4.63;;;18.60;75.10;;;;;;5028430;28;20086;-71
2022/09/02 01:40:37;;;;;;;16.60;4.53;;;18.60;74.90;;;;;;5034860;28;20040;-72
2022/09/02 01:43:13;;;;;;;12.05;2.95;;;18.50;74.30;;;;;;5032655;28;20075;-71
2022/09/02 01:45:41;;;;;;;14.10;3.15;;;18.60;74.30;;;;;;5039367;28;20037;-72
2022/09/02 01:48:09;;;;;;;17.05;5.65;;;18.50;74.20;;;;;;5029217;28;20018;-73
2022/09/02 01:50:41;;;;;;;12.68;3.88;;;18.60;74.20;;;;;;5028124;28;20049;-73
2022/09/02 01:53:08;;;;;;;13.55;4.10;;;18.60;74.10;;;;;;5035204;28;20024;-72
2022/09/02 01:55:35;;;;;;;13.77;3.50;;;18.50;74.20;;;;;;5032678;28;20072;-72
2022/09/02 01:58:02;;;;;;;14.73;3.20;;;18.50;74.10;;;;;;5037109;28;20029;-72
2022/09/02 02:00:28;;;;;;;17.15;4.68;;;18.50;74.00;;;;;;5033242;28;20037;-73
2022/09/02 02:02:55;;;;;;;14.50;4.30;;;18.50;73.90;;;;;;5036338;28;20026;-71
2022/09/02 02:05:22;;;;;;;13.10;3.58;;;18.50;73.70;;;;;;5034299;28;20576;-71
2022/09/02 02:07:49;;;;;;;12.65;5.70;;;18.50;73.60;;;;;;5032241;28;20123;-71
2022/09/02 02:10:18;;;;;;;9.80;3.28;;;18.50;73.50;;;;;;5038547;28;20510;-72
2022/09/02 02:12:44;;;;;;;17.40;3.30;;;18.50;73.30;;;;;;5037521;28;20029;-71
2022/09/02 02:15:17;;;;;;;6.72;2.88;;;18.50;73.20;;;;;;5030108;28;20515;-71
2022/09/02 02:17:44;;;;;;;13.40;4.38;;;18.50;73.10;;;;;;5032036;28;20040;-72
2022/09/02 02:20:13;;;;;;;13.43;4.32;;;18.50;73.00;;;;;;5029397;28;20046;-72
2022/09/02 02:22:41;;;;;;;13.45;3.40;;;18.50;72.90;;;;;;5032243;28;20097;-71
2022/09/02 02:25:08;;;;;;;16.73;5.30;;;18.40;73.10;;;;;;5033134;28;20017;-71
2022/09/02 02:27:35;;;;;;;17.73;4.68;;;18.50;73.20;;;;;;5031719;28;20106;-72
2022/09/02 02:30:01;;;;;;;18.20;3.80;;;18.50;73.00;;;;;;5034199;28;20760;-72
2022/09/02 02:32:28;;;;;;;16.13;4.18;;;18.40;72.80;;;;;;5037551;28;20017;-73
2022/09/02 02:34:55;;;;;;;15.93;4.25;;;18.40;73.10;;;;;;5032251;28;20021;-72
2022/09/02 02:37:21;;;;;;;17.10;4.00;;;18.40;72.90;;;;;;5034155;28;20025;-73
2022/09/02 02:39:48;;;;;;;17.30;4.28;;;18.40;72.60;;;;;;5029251;28;20051;-72
2022/09/02 02:42:14;;;;;;;13.25;5.03;;;18.40;72.50;;;;;;5029099;28;20028;-72
2022/09/02 02:44:42;;;;;;;18.92;4.45;;;18.40;72.50;;;;;;5035653;28;20033;-73
2022/09/02 02:47:09;;;;;;;14.23;3.60;;;18.40;72.60;;;;;;5033337;28;20040;-72
2022/09/02 02:49:39;;;;;;;12.57;3.75;;;18.40;73.30;;;;;;5033529;28;20396;-73
2022/09/02 02:52:07;;;;;;;11.10;3.38;;;18.40;73.50;;;;;;5030375;28;20384;-72
2022/09/02 02:54:33;;;;;;;18.27;3.20;;;18.40;73.70;;;;;;5035642;28;20036;-72
2022/09/02 02:57:00;;;;;;;12.50;4.10;;;18.40;74.10;;;;;;5032387;28;20021;-73
2022/09/02 02:59:28;;;;;;;8.30;2.80;;;18.40;74.40;;;;;;5036225;28;20028;-72
2022/09/02 03:01:54;;;;;;;18.85;3.40;;;18.30;74.00;;;;;;5029461;28;20484;-71
2022/09/02 03:04:21;;;;;;;34.95;13.40;;;18.40;73.80;;;;;;5029544;28;20035;-71
2022/09/02 03:06:48;;;;;;;38.08;17.60;;;18.40;73.80;;;;;;5034393;28;20033;-71
2022/09/02 03:09:14;;;;;;;23.77;14.80;;;18.40;74.00;;;;;;5032951;28;20040;-72
2022/09/02 03:11:41;;;;;;;20.80;13.45;;;18.40;73.70;;;;;;5030553;28;20065;-71
2022/09/02 03:14:07;;;;;;;24.23;6.32;;;18.40;73.10;;;;;;5026123;28;20399;-71
2022/09/02 03:16:35;;;;;;;13.23;5.00;;;18.30;72.50;;;;;;5034545;28;20047;-71
2022/09/02 03:19:03;;;;;;;14.27;3.58;;;18.30;72.70;;;;;;5033316;28;20163;-71
2022/09/02 03:21:29;;;;;;;10.20;3.30;;;18.30;71.70;;;;;;5033416;28;20614;-74
2022/09/02 03:23:56;;;;;;;15.30;3.63;;;18.30;71.40;;;;;;5032205;28;20117;-73
2022/09/02 03:26:24;;;;;;;10.52;2.97;;;18.30;71.50;;;;;;5033215;28;20547;-73
2022/09/02 03:28:55;;;;;;;11.27;3.15;;;18.30;71.60;;;;;;5031081;28;20059;-72
2022/09/02 03:31:24;;;;;;;16.48;3.83;;;18.30;71.60;;;;;;5033604;28;20097;-72
2022/09/02 03:33:51;;;;;;;14.63;3.13;;;18.30;71.60;;;;;;5038289;28;20060;-72
2022/09/02 03:36:25;;;;;;;11.50;2.95;;;18.30;71.60;;;;;;5032353;28;20542;-73
2022/09/02 03:38:52;;;;;;;13.82;3.65;;;18.20;71.50;;;;;;5027457;28;20533;-72
2022/09/02 03:41:19;;;;;;;11.13;3.38;;;18.30;71.60;;;;;;5034602;28;20061;-73
2022/09/02 03:43:46;;;;;;;17.88;3.65;;;18.30;71.50;;;;;;5030096;28;20029;-73
2022/09/02 03:46:13;;;;;;;14.23;3.85;;;18.20;71.10;;;;;;5034649;28;20053;-73
2022/09/02 03:48:40;;;;;;;9.15;2.58;;;18.20;70.90;;;;;;5032051;28;20038;-71
2022/09/02 03:51:10;;;;;;;15.93;3.58;;;18.20;70.80;;;;;;5033798;28;20041;-70
2022/09/02 03:53:37;;;;;;;15.15;3.40;;;18.20;70.60;;;;;;5030167;28;20052;-71
2022/09/02 03:56:44;;;;;;;18.52;5.70;;;18.10;70.40;;;;;;5031211;28;20033;-71
2022/09/02 03:59:11;;;;;;;16.77;6.22;;;18.20;70.40;;;;;;5031359;28;20116;-68
2022/09/02 04:01:38;;;;;;;13.88;5.78;;;18.10;69.90;;;;;;5025565;28;20103;-67
2022/09/02 04:04:05;;;;;;;17.42;3.70;;;18.10;69.60;;;;;;5028047;28;20026;-70
2022/09/02 04:06:32;;;;;;;10.40;3.28;;;18.20;70.00;;;;;;5038506;28;20029;-68
2022/09/02 04:08:59;;;;;;;12.20;3.28;;;18.10;70.10;;;;;;5033366;28;20116;-70
2022/09/02 04:11:26;;;;;;;13.77;4.25;;;18.10;69.80;;;;;;5035349;28;20026;-69
2022/09/02 04:13:53;;;;;;;12.07;4.10;;;18.10;69.80;;;;;;5031162;28;20028;-71
2022/09/02 04:16:27;;;;;;;12.35;3.95;;;18.10;69.70;;;;;;5030300;28;20018;-71
2022/09/02 04:18:56;;;;;;;10.25;3.30;;;18.10;69.60;;;;;;5033428;28;20036;-74
2022/09/02 04:21:24;;;;;;;17.08;3.67;;;18.10;69.50;;;;;;5029337;28;20033;-70
2022/09/02 04:23:51;;;;;;;14.80;4.72;;;18.10;69.30;;;;;;5029818;28;20037;-71
2022/09/02 04:26:19;;;;;;;19.92;7.40;;;18.10;69.10;;;;;;5030016;28;20087;-73
2022/09/02 04:28:47;;;;;;;16.38;6.22;;;18.10;69.20;;;;;;5033526;28;20025;-72
2022/09/02 04:31:16;;;;;;;16.42;4.82;;;18.00;69.40;;;;;;5026667;28;20017;-72
2022/09/02 04:33:43;;;;;;;14.13;5.07;;;18.10;69.90;;;;;;5031097;28;20026;-72
2022/09/02 04:36:13;;;;;;;10.65;3.42;;;18.10;69.60;;;;;;5026803;28;20041;-72
2022/09/02 04:38:40;;;;;;;9.80;3.88;;;18.10;69.30;;;;;;5033948;28;20112;-71
2022/09/02 04:41:13;;;;;;;11.77;2.90;;;18.10;69.00;;;;;;5030749;28;20021;-71
2022/09/02 04:43:40;;;;;;;18.20;5.15;;;18.10;68.70;;;;;;5034155;28;20029;-71
2022/09/02 04:46:09;;;;;;;10.90;3.72;;;18.10;68.70;;;;;;5030164;28;20037;-73
2022/09/02 04:48:37;;;;;;;15.77;3.17;;;18.00;68.70;;;;;;5035949;28;20032;-71
2022/09/02 04:51:09;;;;;;;11.60;4.10;;;18.10;68.80;;;;;;5035442;28;20510;-73
2022/09/02 04:53:37;;;;;;;12.20;2.95;;;18.10;69.60;;;;;;5029736;28;20133;-73
2022/09/02 04:56:06;;;;;;;22.27;3.65;;;18.10;70.20;;;;;;5031369;28;20499;-70
2022/09/02 04:58:33;;;;;;;8.98;3.58;;;18.00;70.60;;;;;;5031432;28;20017;-73
2022/09/02 05:01:04;;;;;;;12.20;3.45;;;18.00;70.60;;;;;;5036706;28;20034;-74
2022/09/02 05:03:31;;;;;;;18.25;6.00;;;18.00;70.80;;;;;;5032933;28;20040;-74
2022/09/02 05:06:03;;;;;;;13.90;3.63;;;18.00;70.80;;;;;;5039506;28;20033;-75
2022/09/02 05:08:30;;;;;;;12.60;4.30;;;18.00;71.00;;;;;;5050026;28;20025;-68
2022/09/02 05:10:56;;;;;;;14.40;4.20;;;18.00;71.00;;;;;;5036377;28;20078;-68
2022/09/02 05:13:24;;;;;;;14.73;3.33;;;18.00;71.60;;;;;;5032375;28;20033;-73
2022/09/02 05:15:51;;;;;;;15.95;3.72;;;18.00;71.30;;;;;;5036162;28;20105;-71
2022/09/02 05:18:18;;;;;;;16.42;4.32;;;18.00;71.60;;;;;;5027895;28;20087;-72
2022/09/02 05:20:44;;;;;;;12.35;3.22;;;18.00;71.40;;;;;;5030848;28;20073;-73
2022/09/02 05:23:11;;;;;;;10.68;3.45;;;18.00;71.10;;;;;;5032101;28;20017;-71
2022/09/02 05:25:39;;;;;;;13.55;4.07;;;18.00;71.10;;;;;;5037252;28;20116;-71
2022/09/02 05:28:09;;;;;;;13.40;3.75;;;18.00;71.10;;;;;;5032424;28;20028;-73
2022/09/02 05:30:37;;;;;;;16.30;3.80;;;18.00;71.10;;;;;;5037824;28;20040;-71
2022/09/02 05:33:05;;;;;;;19.40;6.20;;;18.00;71.20;;;;;;5036498;28;20071;-72
2022/09/02 05:35:31;;;;;;;13.30;3.85;;;18.00;71.20;;;;;;5034981;28;20052;-71
2022/09/02 05:37:59;;;;;;;11.00;2.42;;;17.90;71.20;;;;;;5035917;28;20029;-72
2022/09/02 05:40:25;;;;;;;14.73;3.38;;;17.90;71.10;;;;;;5033876;28;20029;-72
2022/09/02 05:42:52;;;;;;;10.60;3.15;;;18.00;71.10;;;;;;5038331;28;20481;-72
2022/09/02 05:45:18;;;;;;;11.88;4.05;;;18.00;71.10;;;;;;5032759;28;20072;-73
2022/09/02 05:47:45;;;;;;;10.20;2.95;;;17.90;71.10;;;;;;5036960;28;20040;-73
2022/09/02 05:50:13;;;;;;;16.00;4.70;;;18.00;71.20;;;;;;5027672;28;20029;-72
2022/09/02 05:52:40;;;;;;;18.38;4.22;;;17.90;71.90;;;;;;5040380;28;20480;-68
2022/09/02 05:55:07;;;;;;;10.48;2.92;;;17.90;72.00;;;;;;5033347;28;20055;-73
2022/09/02 05:57:33;;;;;;;11.38;4.28;;;18.00;72.00;;;;;;5039544;28;20024;-73
2022/09/02 06:00:00;;;;;;;16.40;5.07;;;17.90;71.90;;;;;;5036557;28;20048;-73
2022/09/02 06:02:26;;;;;;;21.40;4.20;;;18.00;72.00;;;;;;5035716;28;20030;-73
2022/09/02 06:04:53;;;;;;;11.55;2.65;;;17.90;72.10;;;;;;5033685;28;20025;-72
2022/09/02 06:07:25;;;;;;;14.63;3.53;;;17.90;72.20;;;;;;5037291;28;20114;-72
2022/09/02 06:09:52;;;;;;;15.05;2.95;;;17.90;72.20;;;;;;5033838;28;20029;-72
2022/09/02 06:12:19;;;;;;;19.55;3.17;;;17.90;72.30;;;;;;5031023;28;20377;-72
2022/09/02 06:14:47;;;;;;;13.15;4.32;;;17.90;72.30;;;;;;5038247;28;20581;-73
2022/09/02 06:17:14;;;;;;;13.93;3.53;;;17.90;72.30;;;;;;5031733;28;20113;-72
2022/09/02 06:19:41;;;;;;;9.90;2.25;;;17.90;72.20;;;;;;5032409;28;20032;-72
2022/09/02 06:22:08;;;;;;;16.17;2.75;;;17.90;71.90;;;;;;5035123;28;20040;-71
2022/09/02 06:24:34;;;;;;;16.80;4.55;;;17.90;71.90;;;;;;5032594;28;20029;-73
2022/09/02 06:27:01;;;;;;;15.82;3.20;;;17.90;72.50;;;;;;5041274;28;20569;-71
2022/09/02 06:29:27;;;;;;;12.23;3.08;;;18.00;73.60;;;;;;5032833;28;20036;-73
2022/09/02 06:31:54;;;;;;;14.63;4.05;;;18.00;74.00;;;;;;5033283;28;20035;-74
2022/09/02 06:34:24;;;;;;;14.07;3.40;;;18.00;73.90;;;;;;5037096;28;20037;-73
2022/09/02 06:36:50;;;;;;;14.65;3.45;;;18.00;74.00;;;;;;5030154;28;20049;-70
2022/09/02 06:39:19;;;;;;;14.93;3.97;;;17.90;73.80;;;;;;5031168;28;20033;-73
2022/09/02 06:41:47;;;;;;;13.05;3.33;;;18.00;73.60;;;;;;5031187;28;20128;-74
2022/09/02 06:44:15;;;;;;;15.43;4.45;;;18.00;73.60;;;;;;5036581;28;20021;-72
2022/09/02 06:46:46;;;;;;;19.77;4.50;;;18.00;73.40;;;;;;5033653;28;20033;-74
2022/09/02 06:49:15;;;;;;;17.92;4.68;;;18.00;73.20;;;;;;5025384;28;20045;-73
2022/09/02 06:51:45;;;;;;;24.10;4.30;;;18.10;72.80;;;;;;5037856;28;20042;-71
2022/09/02 06:54:15;;;;;;;15.40;3.22;;;18.00;72.40;;;;;;5027606;28;20063;-73
2022/09/02 06:56:42;;;;;;;25.15;5.75;;;18.00;71.90;;;;;;5029404;28;20051;-74
2022/09/02 06:59:09;;;;;;;15.65;3.65;;;18.00;71.50;;;;;;5030645;28;20096;-73
2022/09/02 07:01:36;;;;;;;14.73;4.03;;;18.10;71.00;;;;;;5037549;28;20095;-73
2022/09/02 07:06:50;;;;;;;;;;;18.00;70.70;;;;;;5035087;28;20047;-72
2022/09/02 07:09:20;;;;;;;9.85;4.05;;;18.10;70.70;;;;;;5032675;28;20438;-74
2022/09/02 07:11:48;;;;;;;15.07;2.92;;;18.10;70.70;;;;;;5032813;28;20112;-72
2022/09/02 07:14:17;;;;;;;14.55;3.60;;;18.00;70.70;;;;;;5027245;28;20022;-72
2022/09/02 07:16:47;;;;;;;13.10;2.78;;;18.10;70.70;;;;;;5034271;28;20082;-72
2022/09/02 07:19:14;;;;;;;15.23;4.03;;;18.10;70.60;;;;;;5030012;28;20033;-72
2022/09/02 07:21:41;;;;;;;10.43;3.28;;;18.10;70.60;;;;;;5039359;28;20041;-73
2022/09/02 07:24:10;;;;;;;13.88;3.33;;;18.10;70.40;;;;;;5027657;28;20101;-70
2022/09/02 07:26:37;;;;;;;9.50;2.40;;;18.10;70.50;;;;;;5030601;28;20079;-72
2022/09/02 07:29:07;;;;;;;9.90;2.67;;;18.10;70.60;;;;;;5026630;28;20401;-71
2022/09/02 07:31:38;;;;;;;8.98;2.80;;;18.20;70.60;;;;;;5030586;28;20044;-72
2022/09/02 07:34:06;;;;;;;7.03;2.58;;;18.20;70.40;;;;;;5032981;28;20061;-73
2022/09/02 07:36:35;;;;;;;9.75;4.00;;;18.20;70.00;;;;;;5037293;28;20120;-72
2022/09/02 07:39:04;;;;;;;9.75;2.90;;;18.20;69.60;;;;;;5030179;28;20045;-71
2022/09/02 07:41:31;;;;;;;12.80;2.70;;;18.20;69.40;;;;;;5033060;28;20031;-70
2022/09/02 07:43:57;;;;;;;11.50;3.15;;;18.30;69.10;;;;;;5030998;28;20035;-70
2022/09/02 07:46:24;;;;;;;14.50;2.65;;;18.30;68.90;;;;;;5036673;28;20025;-71
2022/09/02 07:48:50;;;;;;;10.93;2.13;;;18.30;68.80;;;;;;5035547;28;20433;-70
2022/09/02 07:51:19;;;;;;;13.25;3.28;;;18.30;69.20;;;;;;5028392;28;20021;-72
2022/09/02 07:53:45;;;;;;;16.40;3.17;;;18.30;68.90;;;;;;5031617;28;20090;-72
2022/09/02 07:56:13;;;;;;;21.17;2.72;;;18.30;68.30;;;;;;5031079;28;20051;-71
2022/09/02 07:58:43;;;;;;;12.75;2.80;;;18.40;68.10;;;;;;5033372;28;20958;-72
2022/09/02 08:01:11;;;;;;;17.35;3.00;;;18.30;67.90;;;;;;5033276;28;20041;-73
2022/09/02 08:03:41;;;;;;;14.23;2.50;;;18.40;68.00;;;;;;5033480;28;20010;-72
2022/09/02 08:06:09;;;;;;;10.73;2.83;;;18.40;67.90;;;;;;5036812;28;20025;-71
2022/09/02 08:08:35;;;;;;;10.63;2.47;;;18.40;67.50;;;;;;5030732;28;20437;-72
2022/09/02 08:11:03;;;;;;;8.15;2.53;;;18.50;67.00;;;;;;5027420;28;20041;-70
2022/09/02 08:13:30;;;;;;;9.65;2.70;;;18.50;66.70;;;;;;5032693;28;20033;-73
2022/09/02 08:15:56;;;;;;;11.25;2.45;;;18.50;66.60;;;;;;5036446;28;20025;-71
2022/09/02 08:18:23;;;;;;;9.90;2.72;;;18.50;66.70;;;;;;5036388;28;20033;-73
2022/09/02 08:20:50;;;;;;;9.50;2.83;;;18.60;66.70;;;;;;5037798;28;20055;-71
2022/09/02 08:23:17;;;;;;;10.85;2.88;;;18.60;66.70;;;;;;5037147;28;20018;-71
2022/09/02 08:25:44;;;;;;;10.55;2.60;;;18.50;66.60;;;;;;5037284;28;20487;-69
2022/09/02 08:28:10;;;;;;;7.07;2.22;;;18.50;66.50;;;;;;5032179;28;20109;-71
2022/09/02 08:30:37;;;;;;;6.90;3.05;;;18.60;66.30;;;;;;5038643;28;20489;-71
2022/09/02 08:33:04;;;;;;;13.32;3.08;;;18.60;66.30;;;;;;5033354;28;20060;-73
2022/09/02 08:35:30;;;;;;;7.57;2.42;;;18.60;66.00;;;;;;5035616;28;20080;-71
2022/09/02 08:38:00;;;;;;;11.05;2.58;;;18.60;65.70;;;;;;5031599;28;20030;-70
2022/09/02 08:40:35;;;;;;;8.27;2.88;;;18.60;65.50;;;;;;5033795;28;20034;-72
2022/09/02 08:43:23;;;;;;;10.40;2.78;;;18.60;65.40;;;;;;5034682;28;20029;-73
2022/09/02 08:45:50;;;;;;;12.07;3.53;;;18.70;65.60;;;;;;5038458;28;20048;-71
2022/09/02 08:48:32;;;;;;;10.85;3.13;;;18.60;65.50;;;;;;5033813;28;20101;-69
2022/09/02 08:51:06;;;;;;;10.15;3.15;;;18.70;65.00;;;;;;5029350;28;20573;-71
2022/09/02 08:53:35;;;;;;;9.95;2.80;;;18.70;64.60;;;;;;5035086;28;20029;-72
2022/09/02 08:56:04;;;;;;;9.35;2.53;;;18.70;64.60;;;;;;5032333;28;20029;-72
2022/09/02 08:58:40;;;;;;;13.30;3.40;;;18.70;64.80;;;;;;5030843;28;20025;-72
2022/09/02 09:01:09;;;;;;;10.02;2.78;;;18.70;64.90;;;;;;5039341;28;20029;-72
2022/09/02 09:03:57;;;;;;;8.93;2.75;;;18.80;65.10;;;;;;5029384;28;20121;-72
2022/09/02 09:06:48;;;;;;;16.17;2.80;;;18.80;65.40;;;;;;5034641;28;20044;-72
2022/09/02 09:09:36;;;;;;;15.75;3.72;;;18.80;65.70;;;;;;5036877;28;20506;-74
2022/09/02 09:12:12;;;;;;;7.38;2.88;;;18.80;66.10;;;;;;5026858;28;20030;-70
2022/09/02 09:14:54;;;;;;;9.82;2.35;;;18.90;66.00;;;;;;5036886;28;20025;-73
2022/09/02 09:17:37;;;;;;;10.52;3.83;;;18.90;65.70;;;;;;5036615;28;20029;-69
2022/09/02 09:20:13;;;;;;;9.38;2.42;;;18.90;65.10;;;;;;5033231;28;20037;-71
2022/09/02 09:22:41;;;;;;;14.10;3.42;;;19.00;65.10;;;;;;5038178;28;20048;-70
2022/09/02 09:25:12;;;;;;;9.80;2.72;;;19.00;65.10;;;;;;5035310;28;20032;-70
2022/09/02 09:27:39;;;;;;;12.48;2.28;;;19.00;65.20;;;;;;5036506;28;20026;-71
2022/09/02 09:30:07;;;;;;;6.28;2.25;;;19.10;65.30;;;;;;5029281;28;20029;-73
2022/09/02 09:32:46;;;;;;;14.93;2.10;;;19.10;65.40;;;;;;5039303;28;20068;-74
2022/09/02 09:35:14;;;;;;;7.20;2.33;;;19.10;65.40;;;;;;5031107;28;20142;-72
2022/09/02 09:37:49;;;;;;;11.85;3.00;;;19.10;65.10;;;;;;5035359;28;20038;-73
2022/09/02 09:40:24;;;;;;;10.02;4.00;;;19.10;64.70;;;;;;5031246;28;20454;-72
2022/09/02 09:43:07;;;;;;;11.38;2.67;;;19.10;64.40;;;;;;5034572;28;20033;-72
2022/09/02 09:45:36;;;;;;;6.68;2.45;;;19.10;64.30;;;;;;5040428;28;20037;-71
2022/09/02 09:48:22;;;;;;;11.30;2.40;;;19.20;64.20;;;;;;5033095;28;20021;-73
2022/09/02 09:51:10;;;;;;;13.43;2.60;;;19.10;64.00;;;;;;5037483;28;20029;-71
2022/09/02 09:53:37;;;;;;;7.60;1.90;;;19.20;64.00;;;;;;5030998;28;20035;-73
2022/09/02 09:56:26;;;;;;;7.80;2.20;;;19.20;63.80;;;;;;5032238;28;20044;-70
2022/09/02 09:58:52;;;;;;;11.18;2.55;;;19.20;63.40;;;;;;5026543;28;20040;-71
2022/09/02 10:01:30;;;;;;;5.65;1.80;;;19.20;63.30;;;;;;5037495;28;20041;-70
2022/09/02 10:04:06;;;;;;;6.68;2.10;;;19.20;63.20;;;;;;5032456;28;20062;-73
2022/09/02 10:06:33;;;;;;;10.88;2.35;;;19.20;63.10;;;;;;5036214;28;20556;-72
2022/09/02 10:09:13;;;;;;;7.75;2.53;;;19.30;62.80;;;;;;5039736;28;20092;-73
2022/09/02 10:11:54;;;;;;;11.57;2.85;;;19.30;62.80;;;;;;5032528;28;20025;-73
2022/09/02 10:14:22;;;;;;;13.43;4.60;;;19.30;62.90;;;;;;5028894;28;20108;-70
2022/09/02 10:17:10;;;;;;;20.30;3.38;;;19.30;62.80;;;;;;5031369;28;20032;-73
2022/09/02 10:20:01;;;;;;;14.15;3.13;;;19.30;62.80;;;;;;5032156;28;20029;-74
2022/09/02 10:22:55;;;;;;;15.80;4.22;;;19.30;63.00;;;;;;5035227;28;20581;-71
2022/09/02 10:25:37;;;;;;;8.82;3.08;;;19.30;63.10;;;;;;5027115;28;20588;-74
2022/09/02 10:28:48;;;;;;;13.32;3.70;;;19.30;63.50;;;;;;5030651;28;20025;-74
2022/09/02 10:31:29;;;;;;;15.15;4.45;;;19.30;64.80;;;;;;5024746;28;20120;-74
2022/09/02 10:34:15;;;;;;;15.65;3.15;;;19.30;65.60;;;;;;5033742;28;20075;-74
2022/09/02 10:37:04;;;;;;;17.73;3.78;;;19.30;65.90;;;;;;5028500;28;20064;-73
2022/09/02 10:39:49;;;;;;;10.82;3.03;;;19.30;65.90;;;;;;5033381;28;20029;-72
2022/09/02 10:42:33;;;;;;;8.23;2.50;;;19.30;65.50;;;;;;5037543;28;20057;-72
2022/09/02 10:45:23;;;;;;;12.93;3.30;;;19.30;65.30;;;;;;5035901;28;20029;-73
2022/09/02 10:47:56;;;;;;;10.57;2.33;;;19.40;65.10;;;;;;5035560;28;20515;-71
2022/09/02 10:50:39;;;;;;;10.27;2.00;;;19.50;64.60;;;;;;5028838;28;20104;-72
2022/09/02 10:53:28;;;;;;;17.55;3.42;;;19.50;63.90;;;;;;5027590;28;20054;-72
2022/09/02 10:56:20;;;;;;;8.50;2.33;;;19.50;62.90;;;;;;5029423;28;20017;-72
2022/09/02 10:59:13;;;;;;;10.98;2.28;;;19.50;62.40;;;;;;5035140;28;20044;-70
2022/09/02 11:02:12;;;;;;;11.23;2.03;;;19.50;62.20;;;;;;5031506;28;20438;-71
2022/09/02 11:04:47;;;;;;;10.68;3.50;;;19.50;62.20;;;;;;5036207;28;20028;-72
2022/09/02 11:07:25;;;;;;;9.98;2.40;;;19.50;62.00;;;;;;5032763;28;20048;-71
2022/09/02 11:10:18;;;;;;;9.52;2.17;;;19.60;61.90;;;;;;5034512;28;20032;-70
2022/09/02 11:13:10;;;;;;;8.32;1.80;;;19.60;62.00;;;;;;5025478;28;20034;-71
2022/09/02 11:15:58;;;;;;;8.30;3.03;;;19.70;62.00;;;;;;5034773;28;20033;-69
2022/09/02 11:18:59;;;;;;;6.90;2.17;;;19.70;61.90;;;;;;5027615;28;20021;-71
2022/09/02 11:21:39;;;;;;;12.88;3.65;;;19.80;61.70;;;;;;5034581;28;20081;-70
2022/09/02 11:24:18;;;;;;;10.02;2.33;;;19.80;61.40;;;;;;5021843;28;20022;-70
2022/09/02 11:27:09;;;;;;;10.25;2.75;;;19.80;61.10;;;;;;5031736;28;20115;-69
2022/09/02 11:29:48;;;;;;;12.55;3.05;;;19.90;61.00;;;;;;5033722;28;20026;-71
2022/09/02 11:32:30;;;;;;;8.45;2.17;;;20.00;60.90;;;;;;5033548;28;20017;-68
2022/09/02 11:34:58;;;;;;;8.55;2.15;;;20.10;60.70;;;;;;5029983;28;20040;-71
2022/09/02 11:37:41;;;;;;;9.52;3.08;;;20.20;60.70;;;;;;5034492;28;20031;-71
2022/09/02 11:40:13;;;;;;;11.57;2.83;;;20.30;60.30;;;;;;5031337;28;20460;-70
2022/09/02 11:43:13;;;;;;;6.70;1.90;;;20.40;59.30;;;;;;5024555;28;20041;-68
2022/09/02 11:45:55;;;;;;;9.13;2.58;;;20.50;58.90;;;;;;5034888;28;20440;-69
2022/09/02 11:48:40;;;;;;;9.20;1.95;;;20.60;58.10;;;;;;5031486;28;20010;-70
2022/09/02 11:51:27;;;;;;;5.88;1.55;;;20.70;58.00;;;;;;5036507;28;20175;-73
2022/09/02 11:53:56;;;;;;;8.07;2.00;;;20.70;57.50;;;;;;5036386;28;21025;-71
2022/09/02 11:56:36;;;;;;;8.45;3.10;;;20.80;57.20;;;;;;5042013;28;20412;-69
2022/09/02 11:59:04;;;;;;;5.70;2.45;;;20.90;56.60;;;;;;5032222;28;20021;-71
2022/09/02 12:01:37;;;;;;;5.65;1.45;;;21.00;56.10;;;;;;5034874;28;20037;-70
2022/09/02 12:04:13;;;;;;;8.38;2.95;;;21.00;55.90;;;;;;5038231;28;20041;-72
2022/09/02 12:07:11;;;;;;;7.15;2.80;;;21.10;56.20;;;;;;5032779;28;20030;-73
2022/09/02 12:09:46;;;;;;;4.20;1.92;;;21.10;56.40;;;;;;5037825;28;21008;-71
2022/09/02 12:12:40;;;;;;;7.75;2.30;;;21.20;56.40;;;;;;5034318;28;20495;-70
2022/09/02 12:15:16;;;;;;;5.95;2.03;;;21.20;55.80;;;;;;5034107;28;20040;-71
2022/09/02 12:18:09;;;;;;;6.40;2.08;;;21.20;55.30;;;;;;5039258;28;20087;-72
2022/09/02 12:20:40;;;;;;;7.30;1.77;;;21.30;55.50;;;;;;5033514;28;20399;-73
2022/09/02 12:23:31;;;;;;;10.98;1.98;;;21.30;55.30;;;;;;5032480;28;20021;-70
2022/09/02 12:26:01;;;;;;;6.30;2.40;;;21.30;55.00;;;;;;5010250;28;20043;-70
2022/09/02 12:28:30;;;;;;;6.00;2.47;;;21.40;54.60;;;;;;5034993;28;20395;-70
2022/09/02 12:31:09;;;;;;;8.02;1.52;;;21.30;54.40;;;;;;5029804;28;20021;-72
2022/09/02 12:33:37;;;;;;;7.57;1.83;;;21.40;54.10;;;;;;5029011;28;20037;-71
2022/09/02 12:36:09;;;;;;;10.80;1.92;;;21.40;54.60;;;;;;5030081;28;20049;-73
2022/09/02 12:38:42;;;;;;;10.63;2.33;;;21.50;55.30;;;;;;5032926;28;20084;-73
2022/09/02 12:41:23;;;;;;;8.90;2.60;;;21.50;55.80;;;;;;5032395;28;20037;-73
2022/09/02 12:44:14;;;;;;;8.23;2.60;;;21.40;56.00;;;;;;5031753;28;20040;-73
2022/09/02 12:46:44;;;;;;;10.32;2.42;;;21.40;56.50;;;;;;5040013;28;20660;-70
2022/09/02 12:49:33;;;;;;;9.02;2.17;;;21.40;56.80;;;;;;5036391;28;20021;-70
2022/09/02 12:52:09;;;;;;;9.88;2.70;;;21.40;57.10;;;;;;5030919;28;20037;-71
2022/09/02 12:54:42;;;;;;;13.85;2.80;;;21.40;57.60;;;;;;5034496;28;20110;-71
2022/09/02 12:57:10;;;;;;;9.35;2.05;;;21.40;57.50;;;;;;5033212;28;20080;-70
2022/09/02 12:59:41;;;;;;;8.88;2.13;;;21.30;57.30;;;;;;5040756;28;20479;-73
2022/09/02 13:02:17;;;;;;;12.95;3.17;;;21.30;57.10;;;;;;5028199;28;20034;-71
2022/09/02 13:04:56;;;;;;;9.85;2.65;;;21.30;56.80;;;;;;5031529;28;20485;-73
2022/09/02 13:07:49;;;;;;;5.45;1.40;;;21.30;56.70;;;;;;5034894;28;20045;-73